createdAt,value
2022-11-15T00:00:12.011Z,100311.63
2022-11-15T00:10:41.475Z,100299.92
2022-11-15T00:21:09.697Z,100285.80
2022-11-15T00:31:31.812Z,100272.52
2022-11-15T00:41:53.680Z,100256.77
2022-11-15T00:52:15.920Z,100245.75
2022-11-15T01:02:40.428Z,100242.89
2022-11-15T01:13:02.286Z,100227.59
2022-11-15T01:23:24.141Z,100208.37
2022-11-15T01:33:49.229Z,100190.52
2022-11-15T01:44:43.666Z,100177.34
2022-11-15T01:55:12.667Z,100166.98
2022-11-15T02:05:38.173Z,100149.94
2022-11-15T02:16:36.891Z,100143.48
2022-11-15T02:27:20.542Z,100128.19
2022-11-15T02:37:58.849Z,100121.27
2022-11-15T02:48:25.548Z,100110.04
2022-11-15T02:59:20.088Z,100104.31
2022-11-15T03:09:49.002Z,100091.85
2022-11-15T03:20:15.557Z,100085.60
2022-11-15T03:30:41.267Z,100065.13
2022-11-15T03:41:14.865Z,100056.02
2022-11-15T03:51:37.223Z,100046.95
2022-11-15T04:01:59.272Z,100044.57
2022-11-15T04:12:34.274Z,100047.05
2022-11-15T04:23:19.542Z,100032.11
2022-11-15T04:33:41.603Z,100026.12
2022-11-15T04:44:03.635Z,100019.46
2022-11-15T04:54:27.005Z,100012.52
2022-11-15T05:04:48.987Z,100012.02
2022-11-15T05:15:11.133Z,99998.61
2022-11-15T05:25:33.535Z,99992.88
2022-11-15T05:36:06.692Z,99984.02
2022-11-15T05:46:29.462Z,99987.42
2022-11-15T05:56:51.734Z,99984.27
2022-11-15T06:07:16.168Z,99982.06
2022-11-15T06:17:38.315Z,99977.94
2022-11-15T06:28:02.344Z,99985.15
2022-11-15T06:38:27.569Z,99982.25
2022-11-15T06:48:56.566Z,99991.02
2022-11-15T06:59:18.268Z,99993.45
2022-11-15T07:09:40.353Z,99996.57
2022-11-15T07:20:02.488Z,100004.97
2022-11-15T07:30:27.351Z,100004.66
2022-11-15T07:40:59.906Z,100004.52
2022-11-15T07:51:21.825Z,100004.23
2022-11-15T08:01:43.857Z,100002.62
2022-11-15T08:12:06.803Z,99995.40
2022-11-15T08:22:29.066Z,99984.65
2022-11-15T08:32:54.408Z,99976.36
2022-11-15T08:43:16.185Z,99978.44
2022-11-15T08:53:39.117Z,99984.67
2022-11-15T09:04:02.501Z,99976.45
2022-11-15T09:14:26.389Z,99978.77
2022-11-15T09:24:48.333Z,99970.73
2022-11-15T09:35:10.209Z,99953.95
2022-11-15T09:46:13.674Z,99951.83
2022-11-15T09:56:43.323Z,99945.23
2022-11-15T10:07:14.373Z,99933.43
2022-11-15T10:17:24.581Z,99928.84
2022-11-15T10:27:28.058Z,99927.31
2022-11-15T10:37:33.991Z,99929.70
2022-11-15T10:47:39.709Z,99933.58
2022-11-15T10:57:51.716Z,99932.00
2022-11-15T11:08:01.793Z,99929.85
2022-11-15T11:18:29.650Z,99930.04
2022-11-15T11:28:42.366Z,99916.11
2022-11-15T11:39:01.281Z,99903.14
2022-11-15T11:49:22.814Z,99889.02
2022-11-15T11:59:35.809Z,99880.45
2022-11-15T12:10:00.209Z,99872.60
2022-11-15T12:20:09.127Z,99870.06
2022-11-15T12:30:16.702Z,99864.86
2022-11-15T12:40:47.530Z,99850.46
2022-11-15T12:50:56.685Z,99849.59
2022-11-15T13:01:00.141Z,99849.88
2022-11-15T13:11:49.375Z,99846.85
2022-11-15T13:22:12.884Z,99837.17
2022-11-15T13:32:21.764Z,99835.27
2022-11-15T13:42:29.907Z,99824.48
2022-11-15T13:52:38.017Z,99817.82
2022-11-15T14:02:41.363Z,99814.38
2022-11-15T14:12:52.582Z,99805.64
2022-11-15T14:23:02.060Z,99796.97
2022-11-15T14:33:30.716Z,99786.66
2022-11-15T14:43:34.115Z,99785.52
2022-11-15T14:53:39.019Z,99784.16
2022-11-15T15:03:42.441Z,99779.17
2022-11-15T15:13:45.695Z,99791.70
2022-11-15T15:23:49.012Z,99785.98
2022-11-15T15:33:52.186Z,99774.05
2022-11-15T15:43:55.399Z,99774.79
2022-11-15T15:53:59.247Z,99775.44
2022-11-15T16:04:02.539Z,99768.93
2022-11-15T16:14:05.808Z,99767.78
2022-11-15T16:24:09.078Z,99761.01
2022-11-15T16:34:12.293Z,99768.16
2022-11-15T17:09:28.645Z,99764.75
2022-11-15T17:31:17.250Z,99770.27
2022-11-15T17:41:21.774Z,99768.54
2022-11-15T17:51:25.129Z,99772.83
2022-11-15T18:01:34.002Z,99763.09
2022-11-15T18:11:40.348Z,99757.81
2022-11-15T18:22:35.510Z,99758.14
2022-11-15T18:32:39.072Z,99756.09
2022-11-15T18:42:44.354Z,99748.20
2022-11-15T18:52:47.808Z,99748.64
2022-11-15T19:02:55.889Z,99750.95
2022-11-15T19:12:59.327Z,99751.41
2022-11-15T19:23:02.727Z,99751.75
2022-11-15T19:33:06.031Z,99751.20
2022-11-15T19:43:10.683Z,99748.88
2022-11-15T19:53:14.669Z,99745.35
2022-11-15T20:03:18.350Z,99744.71
2022-11-15T20:13:22.009Z,99745.89
2022-11-15T20:23:27.336Z,99737.78
2022-11-15T20:33:31.103Z,99736.68
2022-11-15T20:43:37.716Z,99726.77
2022-11-15T20:53:42.661Z,99718.41
2022-11-15T21:03:46.315Z,99713.31
2022-11-15T21:13:49.969Z,99710.64
2022-11-15T21:23:53.515Z,99703.63
2022-11-15T21:33:56.736Z,99703.21
2022-11-15T21:44:04.902Z,99694.80
2022-11-15T21:54:08.483Z,99689.97
2022-11-15T22:04:12.438Z,99684.02
2022-11-15T22:14:15.865Z,99675.40
2022-11-15T22:24:19.323Z,99674.73
2022-11-15T22:34:22.679Z,99680.58
2022-11-15T22:44:25.985Z,99677.09
2022-11-15T22:54:29.457Z,99676.02
2022-11-15T23:04:33.070Z,99675.42
2022-11-15T23:14:36.370Z,99673.99
2022-11-15T23:24:39.645Z,99673.75
2022-11-15T23:34:45.856Z,99668.84
2022-11-15T23:44:53.057Z,99665.80
2022-11-15T23:54:56.373Z,99654.95
